createdAt,value
2019-02-05T00:01:14.216Z,3.70
2019-02-05T00:02:18.668Z,3.70
2019-02-05T00:03:23.565Z,3.70
2019-02-05T00:04:28.019Z,3.70
2019-02-05T00:05:32.772Z,3.60
2019-02-05T00:06:37.174Z,3.60
2019-02-05T00:07:41.612Z,3.60
2019-02-05T00:08:46.099Z,3.60
2019-02-05T00:09:50.716Z,3.60
2019-02-05T00:10:55.289Z,3.60
2019-02-05T00:11:59.732Z,3.60
2019-02-05T00:13:04.530Z,3.60
2019-02-05T00:14:09.175Z,3.60
2019-02-05T00:15:13.548Z,3.60
2019-02-05T00:16:18.008Z,3.60
2019-02-05T00:17:22.363Z,3.60
2019-02-05T00:18:26.822Z,3.50
2019-02-05T00:19:31.552Z,3.50
2019-02-05T00:20:36.027Z,3.60
2019-02-05T00:21:40.366Z,3.50
2019-02-05T00:22:44.825Z,3.50
2019-02-05T00:23:49.398Z,3.50
2019-02-05T00:24:53.781Z,3.50
2019-02-05T00:26:05.832Z,3.50
2019-02-05T00:27:04.388Z,3.50
2019-02-05T00:28:08.821Z,3.50
2019-02-05T00:29:13.226Z,3.50
2019-02-05T00:30:17.889Z,3.50
2019-02-05T00:31:22.627Z,3.50
2019-02-05T00:32:27.431Z,3.40
2019-02-05T00:33:31.965Z,3.30
2019-02-05T00:34:36.460Z,3.30
2019-02-05T00:35:40.911Z,3.30
2019-02-05T00:36:45.304Z,3.30
2019-02-05T00:37:49.773Z,3.20
2019-02-05T00:38:54.168Z,3.20
2019-02-05T00:39:58.641Z,3.20
2019-02-05T00:41:03.199Z,3.20
2019-02-05T00:42:07.737Z,3.20
2019-02-05T00:43:12.186Z,3.20
2019-02-05T00:44:16.626Z,3.10
2019-02-05T00:45:21.494Z,3.10
2019-02-05T00:46:25.923Z,3.10
2019-02-05T00:47:32.282Z,3.10
2019-02-05T00:48:36.564Z,3.10
2019-02-05T00:49:41.286Z,3.10
2019-02-05T00:50:45.675Z,3.10
2019-02-05T00:51:50.160Z,3.00
2019-02-05T00:52:54.628Z,3.00
2019-02-05T00:53:59.040Z,3.00
2019-02-05T00:55:03.601Z,3.10
2019-02-05T00:56:17.342Z,3.00
2019-02-05T00:57:14.385Z,2.90
2019-02-05T00:58:18.742Z,3.00
2019-02-05T00:59:23.242Z,3.00
2019-02-05T01:00:29.680Z,3.00
2019-02-05T01:01:34.296Z,3.00
2019-02-05T01:02:38.851Z,3.10
2019-02-05T01:03:43.208Z,3.00
2019-02-05T01:04:47.663Z,3.00
2019-02-05T01:05:52.130Z,3.00
2019-02-05T01:06:56.775Z,3.00
2019-02-05T01:08:01.716Z,3.00
2019-02-05T01:09:08.997Z,3.00
2019-02-05T01:10:14.094Z,2.90
2019-02-05T01:11:18.623Z,3.00
2019-02-05T01:12:23.089Z,3.00
2019-02-05T01:13:27.481Z,3.00
2019-02-05T01:14:32.037Z,2.90
2019-02-05T01:15:36.434Z,2.90
2019-02-05T01:16:41.050Z,2.90
2019-02-05T01:17:45.631Z,2.90
2019-02-05T01:18:50.209Z,2.90
2019-02-05T01:19:54.957Z,2.90
2019-02-05T01:20:59.370Z,2.90
2019-02-05T01:22:03.728Z,2.90
2019-02-05T01:23:08.104Z,2.90
2019-02-05T01:24:12.713Z,2.90
2019-02-05T01:25:17.915Z,2.90
2019-02-05T01:26:29.357Z,2.80
2019-02-05T01:27:29.082Z,2.90
2019-02-05T01:28:33.542Z,2.80
2019-02-05T01:29:38.186Z,2.80
2019-02-05T01:30:43.734Z,2.90
2019-02-05T01:31:48.240Z,2.80
2019-02-05T01:32:52.759Z,2.80
2019-02-05T01:33:57.352Z,2.80
2019-02-05T01:35:01.784Z,2.80
2019-02-05T01:36:06.567Z,2.80
2019-02-05T01:37:11.081Z,2.80
2019-02-05T01:38:15.648Z,2.80
2019-02-05T01:39:20.029Z,2.80
2019-02-05T01:40:25.392Z,2.80
2019-02-05T01:41:29.927Z,2.80
2019-02-05T01:42:34.443Z,2.80
2019-02-05T01:43:39.191Z,2.70
2019-02-05T01:44:44.358Z,2.70
2019-02-05T01:45:48.925Z,2.80
2019-02-05T01:46:53.579Z,2.80
2019-02-05T01:47:58.047Z,2.80
2019-02-05T01:49:02.788Z,2.80
2019-02-05T01:50:07.949Z,2.80
2019-02-05T01:51:12.595Z,2.80
2019-02-05T01:52:17.350Z,2.80
2019-02-05T01:53:21.771Z,2.80
2019-02-05T01:54:26.136Z,2.80
2019-02-05T01:55:30.867Z,2.80
2019-02-05T01:56:40.901Z,2.80
2019-02-05T01:57:41.412Z,2.80
2019-02-05T01:58:46.025Z,2.80
2019-02-05T01:59:50.622Z,2.80
2019-02-05T02:00:55.089Z,2.80
2019-02-05T02:01:59.804Z,2.80
2019-02-05T02:03:04.862Z,2.90
2019-02-05T02:04:09.301Z,2.80
2019-02-05T02:05:13.952Z,2.80
2019-02-05T02:06:18.419Z,2.80
2019-02-05T02:07:22.928Z,2.80
2019-02-05T02:08:27.359Z,2.80
2019-02-05T02:09:31.759Z,2.80
2019-02-05T02:10:36.111Z,2.90
2019-02-05T02:11:40.516Z,2.90
2019-02-05T02:12:45.965Z,2.90
2019-02-05T02:13:50.338Z,2.90
2019-02-05T02:14:54.803Z,2.90
2019-02-05T02:16:02.321Z,2.90
2019-02-05T02:17:06.770Z,2.90
2019-02-05T02:18:11.248Z,3.00
2019-02-05T02:19:15.995Z,3.00
2019-02-05T02:20:20.961Z,2.90
2019-02-05T02:21:25.307Z,2.90
2019-02-05T02:22:29.810Z,2.80
2019-02-05T02:23:34.352Z,2.90
2019-02-05T02:24:38.922Z,2.90
2019-02-05T02:25:43.615Z,2.90
2019-02-05T02:26:51.998Z,2.90
2019-02-05T02:27:54.606Z,2.90
2019-02-05T02:28:59.243Z,2.90
2019-02-05T02:30:04.903Z,2.90
2019-02-05T02:31:09.363Z,2.90
2019-02-05T02:32:13.760Z,2.80
2019-02-05T02:33:18.214Z,2.80
2019-02-05T02:34:22.696Z,2.70
2019-02-05T02:35:27.138Z,2.80
2019-02-05T02:36:31.884Z,2.80
2019-02-05T02:37:36.449Z,2.80
2019-02-05T02:38:40.828Z,2.80
2019-02-05T02:39:45.270Z,2.90
2019-02-05T02:40:49.750Z,2.90
2019-02-05T02:41:54.184Z,2.90
2019-02-05T02:42:58.572Z,2.90
2019-02-05T02:44:03.067Z,2.90
2019-02-05T02:45:08.751Z,2.90
2019-02-05T02:46:13.216Z,2.90
2019-02-05T02:47:17.586Z,3.00
2019-02-05T02:48:22.035Z,2.90
2019-02-05T02:49:26.546Z,2.90
2019-02-05T02:50:31.020Z,3.00
2019-02-05T02:51:35.511Z,3.00
2019-02-05T02:52:40.067Z,3.00
2019-02-05T02:53:44.746Z,3.00
2019-02-05T02:54:49.468Z,3.00
2019-02-05T02:55:53.916Z,3.00
2019-02-05T02:57:04.972Z,3.00
2019-02-05T02:58:04.712Z,3.00
2019-02-05T02:59:12.104Z,3.00
2019-02-05T03:00:18.349Z,3.00
2019-02-05T03:01:22.848Z,3.00
2019-02-05T03:02:27.382Z,3.00
2019-02-05T03:03:32.067Z,3.00
2019-02-05T03:04:36.685Z,3.00
2019-02-05T03:05:41.150Z,3.00
2019-02-05T03:06:45.624Z,3.00
2019-02-05T03:07:50.005Z,3.00
2019-02-05T03:08:54.504Z,3.00
2019-02-05T03:10:02.052Z,3.00
2019-02-05T03:11:06.668Z,3.00
2019-02-05T03:12:11.379Z,3.00
2019-02-05T03:13:15.852Z,3.00
2019-02-05T03:14:20.331Z,3.00
2019-02-05T03:15:24.911Z,3.00
2019-02-05T03:16:29.375Z,3.00
2019-02-05T03:17:33.826Z,3.00
2019-02-05T03:18:38.281Z,3.00
2019-02-05T03:19:42.747Z,2.90
2019-02-05T03:20:47.986Z,2.90
2019-02-05T03:21:52.488Z,2.90
2019-02-05T03:22:57.186Z,3.00
2019-02-05T03:24:01.809Z,2.90
2019-02-05T03:25:07.185Z,2.90
2019-02-05T03:26:12.392Z,3.00
2019-02-05T03:27:18.492Z,3.00
2019-02-05T03:28:23.045Z,3.00
2019-02-05T03:29:27.398Z,3.00
2019-02-05T03:30:34.940Z,3.00
2019-02-05T03:31:39.439Z,3.00
2019-02-05T03:32:43.881Z,2.90
2019-02-05T03:33:48.413Z,3.00
2019-02-05T03:34:52.790Z,3.00
2019-02-05T03:35:57.297Z,3.00
2019-02-05T03:37:01.695Z,3.10
2019-02-05T03:38:06.177Z,3.00
2019-02-05T03:39:10.654Z,3.00
2019-02-05T03:40:47.176Z,3.00
2019-02-05T03:41:51.549Z,3.10
2019-02-05T03:42:56.123Z,3.00
2019-02-05T03:44:00.873Z,3.00
2019-02-05T03:45:05.516Z,3.00
2019-02-05T03:46:12.327Z,3.00
2019-02-05T03:47:16.933Z,3.10
2019-02-05T03:48:21.430Z,3.10
2019-02-05T03:49:26.500Z,3.10
2019-02-05T03:50:33.257Z,3.00
2019-02-05T03:52:06.418Z,3.00
2019-02-05T03:53:13.257Z,3.00
2019-02-05T03:54:53.312Z,3.00
2019-02-05T03:56:40.004Z,3.00
2019-02-05T03:58:21.090Z,3.10
2019-02-05T04:00:07.090Z,3.10
2019-02-05T04:01:40.656Z,3.10
2019-02-05T04:03:29.130Z,3.00
2019-02-05T04:05:22.470Z,3.00
2019-02-05T04:07:06.469Z,3.00
2019-02-05T04:08:45.806Z,3.10
2019-02-05T04:10:37.137Z,3.10
2019-02-05T04:11:56.038Z,3.10
2019-02-05T04:13:17.582Z,3.20
2019-02-05T04:14:54.498Z,3.10
2019-02-05T04:16:31.177Z,3.10
2019-02-05T04:18:15.043Z,3.20
2019-02-05T04:20:05.386Z,3.20
2019-02-05T04:22:07.396Z,3.20
2019-02-05T04:23:53.130Z,3.10
2019-02-05T04:25:41.554Z,3.10
2019-02-05T04:27:22.609Z,3.10
2019-02-05T04:29:09.624Z,3.10
2019-02-05T04:30:39.629Z,3.10
2019-02-05T04:32:18.449Z,3.00
2019-02-05T04:34:04.209Z,3.10
2019-02-05T04:35:46.624Z,3.10
2019-02-05T04:37:34.773Z,3.10
2019-02-05T04:39:28.824Z,3.10
2019-02-05T04:41:05.315Z,3.10
2019-02-05T04:42:39.115Z,3.10
2019-02-05T04:44:16.152Z,3.20
2019-02-05T04:46:13.186Z,3.20
2019-02-05T04:47:58.511Z,3.20
2019-02-05T04:49:49.853Z,3.20
2019-02-05T04:51:53.035Z,3.20
2019-02-05T04:53:19.812Z,3.20
2019-02-05T04:54:55.555Z,3.20
2019-02-05T04:56:38.084Z,3.20
2019-02-05T04:58:29.353Z,3.20
2019-02-05T05:00:15.586Z,3.20
2019-02-05T05:01:36.560Z,3.20
2019-02-05T05:02:57.301Z,3.20
2019-02-05T05:04:20.287Z,3.20
2019-02-05T05:05:45.977Z,3.20
2019-02-05T05:07:00.778Z,3.20
2019-02-05T05:08:45.194Z,3.20
2019-02-05T05:10:00.425Z,3.20
2019-02-05T05:11:04.903Z,3.20
2019-02-05T05:12:10.096Z,3.20
2019-02-05T05:13:14.799Z,3.20
2019-02-05T05:14:19.302Z,3.20
2019-02-05T05:15:23.833Z,3.20
2019-02-05T05:16:28.244Z,3.30
2019-02-05T05:17:32.960Z,3.10
2019-02-05T05:18:37.372Z,3.20
2019-02-05T05:19:41.965Z,3.10
2019-02-05T05:20:46.890Z,3.10
2019-02-05T05:21:51.857Z,3.10
2019-02-05T05:22:56.454Z,3.10
2019-02-05T05:24:01.592Z,3.10
2019-02-05T05:25:11.195Z,3.10
2019-02-05T05:26:15.658Z,3.10
2019-02-05T05:27:21.844Z,3.10
2019-02-05T05:28:26.498Z,3.10
2019-02-05T05:29:33.162Z,3.10
2019-02-05T05:30:38.157Z,3.10
2019-02-05T05:31:42.862Z,3.10
2019-02-05T05:32:47.322Z,3.10
2019-02-05T05:33:51.856Z,3.10
2019-02-05T05:34:56.386Z,3.10
2019-02-05T05:36:00.869Z,3.10
2019-02-05T05:37:03.663Z,3.20
2019-02-05T05:38:08.389Z,3.10
2019-02-05T05:39:12.979Z,3.10
2019-02-05T05:40:17.387Z,3.10
2019-02-05T05:41:21.806Z,3.10
2019-02-05T05:42:26.308Z,3.20
2019-02-05T05:43:30.799Z,3.10
2019-02-05T05:44:35.636Z,3.20
2019-02-05T05:45:40.323Z,3.20
2019-02-05T05:46:45.190Z,3.10
2019-02-05T05:47:49.889Z,3.10
2019-02-05T05:48:54.345Z,3.10
2019-02-05T05:49:59.018Z,3.10
2019-02-05T05:51:03.539Z,3.10
2019-02-05T05:52:08.248Z,3.10
2019-02-05T05:53:12.746Z,3.20
2019-02-05T05:54:17.095Z,3.20
2019-02-05T05:55:21.679Z,3.10
2019-02-05T05:56:26.115Z,3.10
2019-02-05T05:57:30.611Z,3.10
2019-02-05T05:58:35.229Z,3.10
2019-02-05T05:59:39.989Z,3.10
2019-02-05T06:00:44.443Z,3.10
2019-02-05T06:01:50.399Z,3.10
2019-02-05T06:02:54.978Z,3.10
2019-02-05T06:03:59.635Z,3.10
2019-02-05T06:05:05.923Z,3.10
2019-02-05T06:06:10.467Z,3.10
2019-02-05T06:07:14.921Z,3.10
2019-02-05T06:08:19.415Z,3.10
2019-02-05T06:09:23.872Z,3.20
2019-02-05T06:10:28.388Z,3.20
2019-02-05T06:11:32.868Z,3.20
2019-02-05T06:12:37.440Z,3.20
2019-02-05T06:13:41.968Z,3.20
2019-02-05T06:14:46.437Z,3.20
2019-02-05T06:15:51.131Z,3.20
2019-02-05T06:16:55.747Z,3.20
2019-02-05T06:18:00.493Z,3.20
2019-02-05T06:19:05.607Z,3.20
2019-02-05T06:20:12.800Z,3.20
2019-02-05T06:21:17.319Z,3.20
2019-02-05T06:22:21.876Z,3.20
2019-02-05T06:23:26.525Z,3.20
2019-02-05T06:24:30.977Z,3.20
2019-02-05T06:25:35.596Z,3.20
2019-02-05T06:26:40.049Z,3.20
2019-02-05T06:27:44.546Z,3.20
2019-02-05T06:28:49.110Z,3.30
2019-02-05T06:29:53.535Z,3.30
2019-02-05T06:30:58.035Z,3.30
2019-02-05T06:32:02.522Z,3.30
2019-02-05T06:33:07.044Z,3.30
2019-02-05T06:34:12.001Z,3.30
2019-02-05T06:35:16.767Z,3.30
2019-02-05T06:36:21.213Z,3.30
2019-02-05T06:37:25.806Z,3.30
2019-02-05T06:38:30.322Z,3.30
2019-02-05T06:39:35.271Z,3.30
2019-02-05T06:40:39.649Z,3.40
2019-02-05T06:41:44.164Z,3.40
2019-02-05T06:42:49.167Z,3.40
2019-02-05T06:43:53.624Z,3.40
2019-02-05T06:44:58.007Z,3.30
2019-02-05T06:46:02.423Z,3.40
2019-02-05T06:47:06.939Z,3.30
2019-02-05T06:48:11.603Z,3.30
2019-02-05T06:49:19.051Z,3.40
2019-02-05T06:50:23.483Z,3.40
2019-02-05T06:51:28.104Z,3.40
2019-02-05T06:52:34.153Z,3.40
2019-02-05T06:53:39.050Z,3.40
2019-02-05T06:54:43.489Z,3.40
2019-02-05T06:55:48.008Z,3.40
2019-02-05T06:56:52.449Z,3.30
2019-02-05T06:57:57.160Z,3.30
2019-02-05T06:59:02.064Z,3.30
2019-02-05T07:00:10.128Z,3.30
2019-02-05T07:01:14.759Z,3.30
2019-02-05T07:02:19.239Z,3.30
2019-02-05T07:03:23.783Z,3.30
2019-02-05T07:04:28.251Z,3.30
2019-02-05T07:05:32.664Z,3.30
2019-02-05T07:06:36.975Z,3.40
2019-02-05T07:07:41.513Z,3.40
2019-02-05T07:08:46.299Z,3.30
2019-02-05T07:09:50.734Z,3.30
2019-02-05T07:10:55.406Z,3.40
2019-02-05T07:11:59.847Z,3.40
2019-02-05T07:13:05.295Z,3.40
2019-02-05T07:14:10.040Z,3.40
2019-02-05T07:15:14.817Z,3.40
2019-02-05T07:16:19.229Z,3.40
2019-02-05T07:17:24.425Z,3.50
2019-02-05T07:18:29.510Z,3.50
2019-02-05T07:19:34.253Z,3.50
2019-02-05T07:20:39.139Z,3.50
2019-02-05T07:21:44.043Z,3.50
2019-02-05T07:22:49.291Z,3.50
2019-02-05T07:23:53.732Z,3.50
2019-02-05T07:24:58.354Z,3.50
2019-02-05T07:26:02.822Z,3.60
2019-02-05T07:27:07.289Z,3.60
2019-02-05T07:28:12.106Z,3.50
2019-02-05T07:29:16.578Z,3.60
2019-02-05T07:30:22.722Z,3.60
2019-02-05T07:31:27.076Z,3.50
2019-02-05T07:32:31.485Z,3.60
2019-02-05T07:33:36.149Z,3.50
2019-02-05T07:34:40.613Z,3.50
2019-02-05T07:35:45.200Z,3.50
2019-02-05T07:36:49.625Z,3.50
2019-02-05T07:37:54.272Z,3.50
2019-02-05T07:38:58.651Z,3.50
2019-02-05T07:40:03.405Z,3.50
2019-02-05T07:41:08.069Z,3.60
2019-02-05T07:42:13.050Z,3.60
2019-02-05T07:43:17.573Z,3.60
2019-02-05T07:44:22.005Z,3.60
2019-02-05T07:45:26.435Z,3.70
2019-02-05T07:46:31.044Z,3.60
2019-02-05T07:47:35.406Z,3.60
2019-02-05T07:48:39.791Z,3.60
2019-02-05T07:49:44.254Z,3.70
2019-02-05T07:50:48.670Z,3.70
2019-02-05T07:51:53.233Z,3.70
2019-02-05T07:52:57.853Z,3.70
2019-02-05T07:54:02.562Z,3.70
2019-02-05T07:55:07.565Z,3.70
2019-02-05T07:56:13.014Z,3.70
2019-02-05T07:57:17.588Z,3.70
2019-02-05T07:58:22.101Z,3.70
2019-02-05T07:59:26.495Z,3.70
2019-02-05T08:00:30.947Z,3.70
2019-02-05T08:01:35.517Z,3.80
2019-02-05T08:02:39.882Z,3.80
2019-02-05T08:03:44.324Z,3.80
2019-02-05T08:04:48.813Z,3.80
2019-02-05T08:05:53.347Z,3.80
2019-02-05T08:06:57.953Z,3.80
2019-02-05T08:08:02.469Z,3.80
2019-02-05T08:09:10.025Z,3.80
2019-02-05T08:10:17.226Z,3.80
2019-02-05T08:11:21.897Z,3.80
2019-02-05T08:12:26.378Z,3.80
2019-02-05T08:13:30.813Z,3.80
2019-02-05T08:14:35.335Z,3.80
2019-02-05T08:15:40.297Z,3.90
2019-02-05T08:16:47.587Z,3.90
2019-02-05T08:17:51.041Z,3.90
2019-02-05T08:18:55.483Z,3.90
2019-02-05T08:20:00.392Z,3.90
2019-02-05T08:21:05.256Z,3.90
2019-02-05T08:22:12.094Z,3.90
2019-02-05T08:23:16.502Z,3.90
2019-02-05T08:24:21.219Z,4.00
2019-02-05T08:25:26.210Z,4.00
2019-02-05T08:26:30.760Z,4.00
2019-02-05T08:27:37.168Z,4.00
2019-02-05T08:28:41.506Z,4.00
2019-02-05T08:29:46.024Z,4.00
2019-02-05T08:30:50.814Z,4.00
2019-02-05T08:31:55.301Z,4.00
2019-02-05T08:32:59.726Z,4.00
2019-02-05T08:34:04.718Z,4.00
2019-02-05T08:35:10.052Z,4.00
2019-02-05T08:36:14.691Z,4.10
2019-02-05T08:37:19.229Z,4.10
2019-02-05T08:38:23.735Z,4.20
2019-02-05T08:39:28.203Z,4.20
2019-02-05T08:40:32.874Z,4.20
2019-02-05T08:41:37.934Z,4.20
2019-02-05T08:42:42.643Z,4.20
2019-02-05T08:43:47.131Z,4.30
2019-02-05T08:44:51.722Z,4.30
2019-02-05T08:45:57.098Z,4.30
2019-02-05T08:47:01.691Z,4.40
2019-02-05T08:48:07.107Z,4.40
2019-02-05T08:49:11.788Z,4.50
2019-02-05T08:50:18.569Z,4.40
2019-02-05T08:51:23.004Z,4.50
2019-02-05T08:52:27.553Z,4.50
2019-02-05T08:53:32.020Z,4.50
2019-02-05T08:54:36.399Z,4.50
2019-02-05T08:55:41.007Z,4.60
2019-02-05T08:56:45.776Z,4.60
2019-02-05T08:57:50.660Z,4.60
2019-02-05T08:58:55.131Z,4.60
2019-02-05T08:59:59.511Z,4.70
2019-02-05T09:01:04.582Z,4.70
2019-02-05T09:02:09.334Z,4.70
2019-02-05T09:03:14.028Z,4.70
2019-02-05T09:04:18.555Z,4.80
2019-02-05T09:05:25.914Z,4.70
2019-02-05T09:06:30.299Z,4.80
2019-02-05T09:07:34.744Z,4.70
2019-02-05T09:08:39.216Z,4.70
2019-02-05T09:09:43.713Z,4.80
2019-02-05T09:10:48.053Z,4.80
2019-02-05T09:11:52.455Z,4.80
2019-02-05T09:12:57.191Z,4.80
2019-02-05T09:14:10.615Z,4.80
2019-02-05T09:15:09.305Z,4.80
2019-02-05T09:16:14.250Z,4.90
2019-02-05T09:17:18.839Z,4.90
2019-02-05T09:18:23.535Z,4.90
2019-02-05T09:19:28.090Z,4.90
2019-02-05T09:20:32.851Z,4.90
2019-02-05T09:21:37.768Z,4.90
2019-02-05T09:22:42.321Z,4.90
2019-02-05T09:23:46.706Z,4.90
2019-02-05T09:24:51.104Z,5.00
2019-02-05T09:25:58.068Z,4.90
2019-02-05T09:27:02.393Z,4.90
2019-02-05T09:28:06.888Z,4.90
2019-02-05T09:29:14.318Z,4.90
2019-02-05T09:30:21.030Z,4.90
2019-02-05T09:31:25.916Z,4.90
2019-02-05T09:32:34.988Z,4.90
2019-02-05T09:33:36.410Z,4.90
2019-02-05T09:34:40.992Z,5.00
2019-02-05T09:35:45.394Z,5.00
2019-02-05T09:36:50.010Z,5.00
2019-02-05T09:37:57.581Z,5.10
2019-02-05T09:39:00.674Z,5.10
2019-02-05T09:40:06.490Z,5.10
2019-02-05T09:41:11.088Z,5.10
2019-02-05T09:42:15.524Z,5.10
2019-02-05T09:43:19.974Z,5.20
2019-02-05T09:44:24.544Z,5.20
2019-02-05T09:45:30.636Z,5.30
2019-02-05T09:46:35.397Z,5.30
2019-02-05T09:47:40.284Z,5.30
2019-02-05T09:48:44.920Z,5.30
2019-02-05T09:49:49.486Z,5.20
2019-02-05T09:50:54.127Z,5.20
2019-02-05T09:51:58.674Z,5.20
2019-02-05T09:53:03.232Z,5.20
2019-02-05T09:54:07.722Z,5.10
2019-02-05T09:55:13.342Z,5.10
2019-02-05T09:56:17.843Z,5.20
2019-02-05T09:57:22.329Z,5.10
2019-02-05T09:58:26.754Z,5.10
2019-02-05T09:59:31.244Z,5.20
2019-02-05T10:00:37.990Z,5.20
2019-02-05T10:01:42.575Z,5.20
2019-02-05T10:02:47.114Z,5.20
2019-02-05T10:03:51.872Z,5.10
2019-02-05T10:04:56.244Z,5.10
2019-02-05T10:06:00.810Z,5.10
2019-02-05T10:07:06.431Z,5.10
2019-02-05T10:08:11.177Z,5.10
2019-02-05T10:09:15.665Z,5.00
2019-02-05T10:10:20.520Z,5.00
2019-02-05T10:11:25.274Z,5.00
2019-02-05T10:12:29.776Z,4.90
2019-02-05T10:13:34.203Z,5.00
2019-02-05T10:14:38.935Z,5.00
2019-02-05T10:15:44.047Z,5.00
2019-02-05T10:16:48.658Z,5.00
2019-02-05T10:17:53.256Z,5.10
2019-02-05T10:18:58.178Z,5.00
2019-02-05T10:20:03.040Z,5.10
2019-02-05T10:21:07.545Z,5.10
2019-02-05T10:22:12.181Z,5.00
2019-02-05T10:23:16.713Z,5.00
2019-02-05T10:24:21.162Z,5.10
2019-02-05T10:25:25.674Z,5.00
2019-02-05T10:26:30.209Z,5.00
2019-02-05T10:27:34.570Z,5.00
2019-02-05T10:28:39.133Z,5.00
2019-02-05T10:29:43.610Z,5.00
2019-02-05T10:30:48.024Z,5.00
2019-02-05T10:31:52.790Z,4.90
2019-02-05T10:32:57.307Z,4.90
2019-02-05T10:34:02.039Z,5.00
2019-02-05T10:35:07.547Z,5.00
2019-02-05T10:36:12.528Z,5.00
2019-02-05T10:37:16.989Z,5.00
2019-02-05T10:38:21.580Z,5.00
2019-02-05T10:39:26.169Z,5.00
2019-02-05T10:40:30.798Z,5.00
2019-02-05T10:41:35.359Z,5.00
2019-02-05T10:42:39.879Z,5.00
2019-02-05T10:43:44.385Z,5.00
2019-02-05T10:44:48.848Z,5.10
2019-02-05T10:45:53.622Z,5.10
2019-02-05T10:46:57.979Z,5.10
2019-02-05T10:48:02.605Z,5.10
2019-02-05T10:49:07.265Z,5.10
2019-02-05T10:50:13.089Z,5.10
2019-02-05T10:51:17.883Z,5.10
2019-02-05T10:52:22.456Z,5.10
2019-02-05T10:53:26.932Z,5.10
2019-02-05T10:54:31.534Z,5.20
2019-02-05T10:55:36.115Z,5.10
2019-02-05T10:56:40.581Z,5.20
2019-02-05T10:57:45.117Z,5.20
2019-02-05T10:58:49.859Z,5.20
2019-02-05T10:59:54.555Z,5.30
2019-02-05T11:00:59.249Z,5.30
2019-02-05T11:02:04.342Z,5.40
2019-02-05T11:03:09.347Z,5.40
2019-02-05T11:04:13.823Z,5.40
2019-02-05T11:05:20.826Z,5.40
2019-02-05T11:06:25.395Z,5.50
2019-02-05T11:07:30.274Z,5.50
2019-02-05T11:08:34.896Z,5.50
2019-02-05T11:09:39.553Z,5.40
2019-02-05T11:10:44.256Z,5.40
2019-02-05T11:11:48.834Z,5.50
2019-02-05T11:12:53.738Z,5.40
2019-02-05T11:13:58.261Z,5.30
2019-02-05T11:15:02.641Z,5.30
2019-02-05T11:16:07.197Z,5.30
2019-02-05T11:17:11.848Z,5.30
2019-02-05T11:18:16.577Z,5.30
2019-02-05T11:19:21.048Z,5.30
2019-02-05T11:20:26.570Z,5.40
2019-02-05T11:21:31.040Z,5.30
2019-02-05T11:22:37.699Z,5.30
2019-02-05T11:23:42.631Z,5.40
2019-02-05T11:24:47.130Z,5.40
2019-02-05T11:25:51.552Z,5.40
2019-02-05T11:26:55.969Z,5.40
2019-02-05T11:28:00.483Z,5.40
2019-02-05T11:29:05.041Z,5.30
2019-02-05T11:30:19.978Z,5.40
2019-02-05T11:31:19.570Z,5.30
2019-02-05T11:32:24.055Z,5.30
2019-02-05T11:33:28.714Z,5.30
2019-02-05T11:34:33.215Z,5.40
2019-02-05T11:35:37.816Z,5.40
2019-02-05T11:36:42.334Z,5.40
2019-02-05T11:37:46.877Z,5.40
2019-02-05T11:38:51.638Z,5.50
2019-02-05T11:39:56.349Z,5.50
2019-02-05T11:41:01.175Z,5.50
2019-02-05T11:42:05.761Z,5.50
2019-02-05T11:43:10.695Z,5.50
2019-02-05T11:44:15.473Z,5.40
2019-02-05T11:45:20.164Z,5.50
2019-02-05T11:46:24.690Z,5.50
2019-02-05T11:47:29.407Z,5.50
2019-02-05T11:48:34.047Z,5.40
2019-02-05T11:49:38.620Z,5.50
2019-02-05T11:50:43.318Z,5.50
2019-02-05T11:51:47.987Z,5.50
2019-02-05T11:52:52.714Z,5.40
2019-02-05T11:53:57.447Z,5.50
2019-02-05T11:55:02.104Z,5.50
2019-02-05T11:56:06.925Z,5.50
2019-02-05T11:57:11.776Z,5.50
2019-02-05T11:58:16.776Z,5.50
2019-02-05T11:59:21.419Z,5.50
2019-02-05T12:00:32.993Z,5.50
2019-02-05T12:01:39.107Z,5.50
2019-02-05T12:02:43.434Z,5.60
2019-02-05T12:03:48.089Z,5.60
2019-02-05T12:04:52.626Z,5.60
2019-02-05T12:05:58.272Z,5.60
2019-02-05T12:07:03.348Z,5.60
2019-02-05T12:08:08.015Z,5.60
2019-02-05T12:09:23.958Z,5.60
2019-02-05T12:10:28.775Z,5.60
2019-02-05T12:11:33.578Z,5.60
2019-02-05T12:12:37.980Z,5.50
2019-02-05T12:13:42.597Z,5.50
2019-02-05T12:14:50.222Z,5.50
2019-02-05T12:15:53.387Z,5.40
2019-02-05T12:16:58.258Z,5.50
2019-02-05T12:18:02.948Z,5.50
2019-02-05T12:19:07.549Z,5.50
2019-02-05T12:20:13.701Z,5.50
2019-02-05T12:21:18.486Z,5.40
2019-02-05T12:22:22.934Z,5.40
2019-02-05T12:23:27.443Z,5.50
2019-02-05T12:24:31.867Z,5.50
2019-02-05T12:25:36.398Z,5.50
2019-02-05T12:26:40.895Z,5.50
2019-02-05T12:27:45.815Z,5.50
2019-02-05T12:28:50.368Z,5.50
2019-02-05T12:29:55.345Z,5.50
2019-02-05T12:30:59.927Z,5.50
2019-02-05T12:32:05.254Z,5.50
2019-02-05T12:33:10.551Z,5.50
2019-02-05T12:34:15.052Z,5.60
2019-02-05T12:35:19.758Z,5.60
2019-02-05T12:36:24.743Z,5.50
2019-02-05T12:37:29.285Z,5.50
2019-02-05T12:38:33.899Z,5.60
2019-02-05T12:39:38.483Z,5.60
2019-02-05T12:40:43.118Z,5.70
2019-02-05T12:41:48.001Z,5.70
2019-02-05T12:42:52.632Z,5.70
2019-02-05T12:43:59.695Z,5.60
2019-02-05T12:45:03.684Z,5.60
2019-02-05T12:46:08.279Z,5.60
2019-02-05T12:47:15.268Z,5.60
2019-02-05T12:48:19.925Z,5.50
2019-02-05T12:49:24.489Z,5.50
2019-02-05T12:50:31.466Z,5.60
2019-02-05T12:51:36.097Z,5.50
2019-02-05T12:52:40.636Z,5.60
2019-02-05T12:53:45.335Z,5.50
2019-02-05T12:54:49.829Z,5.50
2019-02-05T12:55:54.444Z,5.50
2019-02-05T12:56:59.328Z,5.50
2019-02-05T12:58:04.265Z,5.50
2019-02-05T12:59:08.778Z,5.50
2019-02-05T13:00:17.995Z,5.50
2019-02-05T13:01:22.465Z,5.50
2019-02-05T13:02:27.191Z,5.50
2019-02-05T13:03:31.826Z,5.50
2019-02-05T13:04:36.594Z,5.50
2019-02-05T13:05:41.483Z,5.60
2019-02-05T13:06:45.979Z,5.60
2019-02-05T13:07:50.638Z,5.60
2019-02-05T13:08:55.689Z,5.60
2019-02-05T13:10:00.459Z,5.60
2019-02-05T13:11:04.997Z,5.50
2019-02-05T13:12:08.975Z,5.60
2019-02-05T13:13:18.082Z,5.60
2019-02-05T13:14:22.121Z,5.70
2019-02-05T13:15:26.569Z,5.70
2019-02-05T13:16:31.284Z,5.60
2019-02-05T13:17:35.831Z,5.60
2019-02-05T13:18:40.460Z,5.60
2019-02-05T13:19:45.296Z,5.60
2019-02-05T13:20:49.851Z,5.60
2019-02-05T13:21:54.546Z,5.60
2019-02-05T13:22:59.736Z,5.60
2019-02-05T13:24:04.589Z,5.60
2019-02-05T13:25:14.128Z,5.60
2019-02-05T13:26:18.585Z,5.60
2019-02-05T13:27:23.051Z,5.60
2019-02-05T13:28:27.744Z,5.70
2019-02-05T13:29:33.992Z,5.60
2019-02-05T13:30:39.322Z,5.70
2019-02-05T13:31:45.555Z,5.70
2019-02-05T13:32:50.140Z,5.70
2019-02-05T13:33:54.977Z,5.70
2019-02-05T13:34:59.733Z,5.70
2019-02-05T13:36:07.966Z,5.70
2019-02-05T13:37:15.019Z,5.70
2019-02-05T13:38:20.190Z,5.70
2019-02-05T13:39:25.415Z,5.70
2019-02-05T13:40:30.370Z,5.70
2019-02-05T13:41:34.997Z,5.70
2019-02-05T13:42:39.839Z,5.70
2019-02-05T13:43:44.813Z,5.70
2019-02-05T13:44:49.488Z,5.60
2019-02-05T13:45:54.251Z,5.70
2019-02-05T13:46:58.746Z,5.60
2019-02-05T13:48:03.555Z,5.60
2019-02-05T13:49:08.344Z,5.60
2019-02-05T13:50:17.519Z,5.60
2019-02-05T13:51:22.484Z,5.60
2019-02-05T13:52:28.224Z,5.60
2019-02-05T13:53:32.702Z,5.60
2019-02-05T13:54:40.224Z,5.60
2019-02-05T13:55:47.104Z,5.50
2019-02-05T13:56:52.758Z,5.50
2019-02-05T13:57:57.420Z,5.50
2019-02-05T13:59:02.044Z,5.50
2019-02-05T14:00:11.088Z,5.50
2019-02-05T14:01:20.169Z,5.40
2019-02-05T14:02:22.434Z,5.40
2019-02-05T14:03:26.970Z,5.40
2019-02-05T14:04:31.687Z,5.40
2019-02-05T14:05:36.400Z,5.40
2019-02-05T14:06:40.967Z,5.40
2019-02-05T14:07:45.804Z,5.40
2019-02-05T14:08:50.439Z,5.40
2019-02-05T14:09:54.888Z,5.40
2019-02-05T14:10:59.643Z,5.40
2019-02-05T14:12:04.552Z,5.40
2019-02-05T14:13:09.219Z,5.40
2019-02-05T14:14:13.802Z,5.40
2019-02-05T14:15:20.767Z,5.30
2019-02-05T14:16:25.636Z,5.40
2019-02-05T14:17:30.350Z,5.40
2019-02-05T14:18:34.784Z,5.40
2019-02-05T14:19:39.199Z,5.40
2019-02-05T14:20:43.748Z,5.40
2019-02-05T14:21:48.874Z,5.50
2019-02-05T14:22:53.468Z,5.50
2019-02-05T14:23:57.897Z,5.50
2019-02-05T14:25:02.463Z,5.40
2019-02-05T14:26:07.584Z,5.50
2019-02-05T14:27:12.183Z,5.60
2019-02-05T14:28:19.398Z,5.60
2019-02-05T14:29:28.791Z,5.60
2019-02-05T14:30:45.007Z,5.60
2019-02-05T14:31:51.869Z,5.50
2019-02-05T14:32:56.476Z,5.60
2019-02-05T14:34:01.579Z,5.60
2019-02-05T14:35:07.411Z,5.50
2019-02-05T14:36:14.266Z,5.50
2019-02-05T14:37:19.390Z,5.50
2019-02-05T14:38:24.316Z,5.50
2019-02-05T14:39:28.801Z,5.50
2019-02-05T14:40:33.485Z,5.40
2019-02-05T14:41:38.049Z,5.50
2019-02-05T14:42:42.608Z,5.50
2019-02-05T14:43:47.316Z,5.50
2019-02-05T14:44:51.906Z,5.50
2019-02-05T14:45:56.529Z,5.50
2019-02-05T14:47:01.000Z,5.50
2019-02-05T14:48:07.094Z,5.60
2019-02-05T14:49:11.838Z,5.50
2019-02-05T14:50:24.960Z,5.50
2019-02-05T14:51:31.952Z,5.50
2019-02-05T14:52:38.439Z,5.40